Time;durP1;ratioP1;P1;durP2;ratioP2;P2;SDS_P1;SDS_P2;PMS_P1;PMS_P2;Temp;Humidity;BMP_temperature;BMP_pressure;BME280_temperature;BME280_humidity;BME280_pressure;Samples;Min_cycle;Max_cycle;Signal;HPM_P1;HPM_P2
2023/11/15 00:00:06;;;;;;;13.40;3.20;;;;;;;10.05;87.68;99076.71;111162;1208;97680;-71
2023/11/15 00:02:37;;;;;;;15.00;3.40;;;;;;;10.05;87.72;99079.35;111038;1209;139075;-72
2023/11/15 00:05:03;;;;;;;15.10;3.90;;;;;;;10.06;87.68;99080.77;111214;1211;109906;-71
2023/11/15 00:07:32;;;;;;;16.10;3.60;;;;;;;10.03;87.66;99077.20;111017;1209;98822;-70
2023/11/15 00:09:57;;;;;;;10.50;2.40;;;;;;;9.98;87.70;99071.64;111039;1207;138317;-71
2023/11/15 00:12:24;;;;;;;17.70;4.50;;;;;;;9.98;87.87;99076.80;111165;1206;95199;-70
2023/11/15 00:14:51;;;;;;;10.20;3.10;;;;;;;9.98;87.80;99080.42;111027;1211;139105;-71
2023/11/15 00:17:17;;;;;;;14.70;3.50;;;;;;;9.94;87.85;99082.06;111186;1209;97648;-70
2023/11/15 00:19:45;;;;;;;15.70;3.50;;;;;;;9.93;87.91;99083.21;111149;1211;98272;-70
2023/11/15 00:22:14;;;;;;;9.00;2.70;;;;;;;9.91;87.86;99076.95;110916;1208;139229;-71
2023/11/15 00:24:40;;;;;;;11.90;2.70;;;;;;;9.92;88.07;99079.38;111114;1209;97710;-70
2023/11/15 00:27:08;;;;;;;16.90;4.20;;;;;;;9.91;87.95;99084.04;111063;1218;138861;-70
2023/11/15 00:29:33;;;;;;;9.60;2.40;;;;;;;9.86;87.95;99083.70;111096;1211;97667;-70
2023/11/15 00:31:59;;;;;;;13.10;2.60;;;;;;;9.86;87.97;99081.92;111175;1209;97540;-71
2023/11/15 00:34:24;;;;;;;8.20;2.20;;;;;;;9.84;88.00;99083.11;110968;1210;138235;-71
2023/11/15 00:36:49;;;;;;;8.20;2.60;;;;;;;9.83;87.97;99080.70;111115;1208;97568;-71
2023/11/15 00:39:14;;;;;;;7.10;2.40;;;;;;;9.80;87.93;99079.47;110928;1207;138363;-70
2023/11/15 00:41:40;;;;;;;12.70;2.80;;;;;;;9.77;88.04;99081.09;111111;1210;97580;-70
2023/11/15 00:44:07;;;;;;;10.20;2.60;;;;;;;9.74;87.96;99080.69;111205;1208;98014;-70
2023/11/15 00:46:34;;;;;;;10.40;2.30;;;;;;;9.74;88.10;99083.40;110965;1208;138564;-71
2023/11/15 00:49:00;;;;;;;13.70;2.70;;;;;;;9.75;88.13;99090.30;111237;1210;98038;-70
2023/11/15 00:51:25;;;;;;;8.60;2.90;;;;;;;9.73;88.13;99089.35;110998;1209;139236;-70
2023/11/15 00:53:51;;;;;;;11.70;3.00;;;;;;;9.72;88.15;99088.66;111137;1207;98085;-70
2023/11/15 00:56:17;;;;;;;9.20;3.20;;;;;;;9.71;88.12;99089.81;111127;1208;97686;-71
2023/11/15 00:58:42;;;;;;;10.40;2.50;;;;;;;9.72;88.22;99084.23;111104;1209;138925;-71
2023/11/15 01:01:10;;;;;;;10.90;2.70;;;;;;;9.75;88.41;99085.30;111147;1211;97634;-70
2023/11/15 01:03:39;;;;;;;13.60;2.70;;;;;;;9.79;88.39;99084.86;110899;1210;141476;-70
2023/11/15 01:06:06;;;;;;;12.30;2.50;;;;;;;9.80;88.30;99085.68;111166;1209;98192;-70
2023/11/15 01:08:33;;;;;;;9.70;2.10;;;;;;;9.80;88.29;99085.16;111307;1211;98160;-70
2023/11/15 01:10:58;;;;;;;9.40;2.40;;;;;;;9.78;88.19;99082.98;110985;1210;138843;-70
2023/11/15 01:13:26;;;;;;;7.50;2.30;;;;;;;9.74;88.37;99083.02;111216;1207;97110;-70
2023/11/15 01:15:52;;;;;;;9.30;2.40;;;;;;;9.74;88.24;99080.55;110970;1211;138014;-70
2023/11/15 01:18:18;;;;;;;16.70;2.60;;;;;;;9.73;88.29;99085.96;111051;1208;96178;-70
2023/11/15 01:20:43;;;;;;;7.00;2.20;;;;;;;9.71;88.40;99084.48;110997;1206;139453;-70
2023/11/15 01:23:09;;;;;;;12.30;2.90;;;;;;;9.73;88.45;99084.90;111123;1211;110655;-71
2023/11/15 01:25:36;;;;;;;8.00;2.20;;;;;;;9.74;88.52;99086.40;111039;1206;97549;-70
2023/11/15 01:28:01;;;;;;;11.70;2.50;;;;;;;9.74;88.47;99091.73;111025;1207;138529;-70
2023/11/15 01:30:27;;;;;;;9.90;2.00;;;;;;;9.72;88.36;99086.71;111240;1209;97588;-70
2023/11/15 01:32:54;;;;;;;15.00;2.80;;;;;;;9.72;88.44;99087.29;110968;1211;139375;-70
2023/11/15 01:35:23;;;;;;;5.90;2.00;;;;;;;9.72;88.47;99089.09;111139;1208;99132;-71
2023/11/15 01:37:50;;;;;;;9.00;1.60;;;;;;;9.73;88.54;99086.31;111248;1211;98885;-71
2023/11/15 01:40:16;;;;;;;24.00;2.80;;;;;;;9.73;88.41;99091.47;110953;1211;138087;-70
2023/11/15 01:42:41;;;;;;;10.80;1.90;;;;;;;9.71;88.43;99082.32;111123;1208;96471;-71
2023/11/15 01:45:07;;;;;;;10.00;2.20;;;;;;;9.73;88.55;99088.60;111085;1212;139890;-70
2023/11/15 01:47:34;;;;;;;9.30;2.30;;;;;;;9.74;88.57;99086.58;111074;1209;97601;-71
2023/11/15 01:50:00;;;;;;;6.70;1.90;;;;;;;9.75;88.58;99085.98;110791;1208;97687;-71
2023/11/15 01:52:27;;;;;;;4.90;1.80;;;;;;;9.76;88.54;99084.84;111053;1206;138157;-70
2023/11/15 01:54:58;;;;;;;8.90;2.70;;;;;;;9.77;88.64;99085.53;111096;1208;97707;-70
2023/11/15 01:57:24;;;;;;;;;;;;;;;9.77;88.62;99086.05;110903;1208;138531;-71
2023/11/15 01:59:50;;;;;;;7.20;1.80;;;;;;;9.76;88.54;99083.95;111000;1211;97611;-70
2023/11/15 02:02:15;;;;;;;9.00;1.90;;;;;;;9.77;88.57;99088.38;111197;1208;97645;-70
2023/11/15 02:04:41;;;;;;;14.80;2.20;;;;;;;9.76;88.55;99092.02;110876;1208;138930;-70
2023/11/15 02:07:09;;;;;;;11.70;2.10;;;;;;;9.77;88.69;99085.70;111014;1211;97712;-70
2023/11/15 02:09:36;;;;;;;6.40;1.80;;;;;;;9.80;88.75;99086.39;110954;1208;138782;-70
2023/11/15 02:12:01;;;;;;;5.20;1.80;;;;;;;9.82;88.74;99089.82;111063;1209;98737;-71
2023/11/15 02:14:27;;;;;;;11.10;2.20;;;;;;;9.83;88.73;99085.70;111027;1209;96574;-70
2023/11/15 02:16:52;;;;;;;7.80;2.00;;;;;;;9.83;88.74;99094.42;110955;1211;138368;-71
2023/11/15 02:19:17;;;;;;;9.40;1.80;;;;;;;9.84;88.79;99096.66;111101;1208;98005;-70
2023/11/15 02:21:43;;;;;;;10.20;3.40;;;;;;;9.82;88.77;99094.98;110890;1208;140423;-70
2023/11/15 02:24:10;;;;;;;8.10;1.90;;;;;;;9.83;88.90;99094.81;111010;1211;97702;-70
2023/11/15 02:26:35;;;;;;;10.20;2.10;;;;;;;9.85;88.81;99095.89;111212;1211;97580;-71
2023/11/15 02:29:01;;;;;;;8.60;2.30;;;;;;;9.84;88.79;99094.88;111251;1212;97684;-71
2023/11/15 02:31:27;;;;;;;7.10;2.10;;;;;;;9.84;88.82;99095.04;111137;1208;98005;-70
2023/11/15 02:33:53;;;;;;;5.60;1.90;;;;;;;9.86;88.93;99097.92;111002;1211;138753;-71
2023/11/15 02:36:18;;;;;;;11.90;2.90;;;;;;;9.88;88.88;99096.23;111056;1210;107203;-70
2023/11/15 02:38:43;;;;;;;8.20;2.20;;;;;;;9.89;88.94;99097.96;110901;1211;139088;-70
2023/11/15 02:41:09;;;;;;;9.70;1.90;;;;;;;9.90;88.98;99099.31;111094;1208;97617;-70
2023/11/15 02:43:35;;;;;;;7.50;1.60;;;;;;;9.91;88.97;99102.11;110992;1211;97668;-71
2023/11/15 02:46:02;;;;;;;15.30;3.10;;;;;;;9.88;88.97;99100.84;110878;1209;138766;-71
2023/11/15 02:48:27;;;;;;;17.20;2.50;;;;;;;9.89;88.97;99105.83;111138;1211;97572;-71
2023/11/15 02:50:53;;;;;;;6.30;2.00;;;;;;;9.90;88.94;99103.44;110977;1209;140040;-70
2023/11/15 02:53:19;;;;;;;14.80;2.70;;;;;;;9.90;88.97;99112.70;111168;1206;97572;-70
2023/11/15 02:55:46;;;;;;;6.10;2.00;;;;;;;9.89;88.96;99111.15;111220;1209;97720;-71
2023/11/15 02:58:13;;;;;;;9.20;2.10;;;;;;;9.88;89.01;99114.96;111214;1207;137990;-70
2023/11/15 03:00:39;;;;;;;7.20;2.20;;;;;;;9.87;89.09;99111.61;111188;1210;97642;-71
2023/11/15 03:03:04;;;;;;;13.00;2.20;;;;;;;9.88;89.05;99114.95;111013;1209;138491;-70
2023/11/15 03:05:31;;;;;;;6.30;2.00;;;;;;;9.87;89.09;99116.82;111054;1208;97576;-71
2023/11/15 03:07:57;;;;;;;9.00;2.00;;;;;;;9.87;89.24;99117.31;111056;1211;99549;-70
2023/11/15 03:10:23;;;;;;;6.50;1.70;;;;;;;9.85;89.16;99125.70;111070;1209;137975;-70
2023/11/15 03:12:48;;;;;;;9.10;2.40;;;;;;;9.78;89.05;99130.80;111204;1208;97745;-73
2023/11/15 03:15:14;;;;;;;13.30;2.40;;;;;;;9.75;89.22;99128.64;110956;1211;139731;-71
2023/11/15 03:17:40;;;;;;;9.30;2.10;;;;;;;9.76;89.37;99130.18;111102;1208;96331;-71
2023/11/15 03:20:10;;;;;;;10.20;2.20;;;;;;;9.75;89.34;99126.86;111357;1210;97578;-71
2023/11/15 03:22:35;;;;;;;6.90;2.30;;;;;;;9.75;89.33;99133.59;110947;1209;138189;-71
2023/11/15 03:25:01;;;;;;;10.30;2.50;;;;;;;9.75;89.52;99137.18;111090;1211;96855;-70
2023/11/15 03:27:27;;;;;;;9.00;2.30;;;;;;;9.74;89.44;99140.80;111347;1209;138337;-71
2023/11/15 03:29:52;;;;;;;8.70;2.20;;;;;;;9.75;89.61;99138.42;111008;1211;97528;-71
2023/11/15 03:32:17;;;;;;;11.00;3.60;;;;;;;9.74;89.57;99139.20;111145;1211;97571;-71
2023/11/15 03:34:43;;;;;;;5.80;2.20;;;;;;;9.72;89.61;99140.44;110931;1211;138873;-71
2023/11/15 03:37:09;;;;;;;12.40;2.40;;;;;;;9.72;89.76;99140.96;110945;1208;97587;-71
2023/11/15 03:39:34;;;;;;;6.40;2.20;;;;;;;9.72;89.74;99137.20;110931;1211;138782;-71
2023/11/15 03:42:01;;;;;;;9.40;2.20;;;;;;;9.70;89.65;99144.98;110930;1213;97537;-71
2023/11/15 03:44:27;;;;;;;8.60;2.40;;;;;;;9.67;89.70;99142.16;110997;1209;97643;-71
2023/11/15 03:46:52;;;;;;;7.80;2.30;;;;;;;9.66;89.77;99145.46;110878;1211;138073;-70
2023/11/15 03:49:19;;;;;;;15.40;3.00;;;;;;;9.64;89.87;99147.88;111130;1211;97600;-70
2023/11/15 03:51:44;;;;;;;5.10;2.40;;;;;;;9.64;89.88;99150.77;110955;1211;138363;-70
2023/11/15 03:54:09;;;;;;;10.30;2.10;;;;;;;9.64;90.07;99150.21;111120;1211;97709;-70
2023/11/15 03:56:35;;;;;;;10.80;2.30;;;;;;;9.65;89.99;99157.64;111164;1211;97613;-70
2023/11/15 03:59:00;;;;;;;6.80;2.40;;;;;;;9.63;90.08;99163.09;111013;1211;139036;-70
2023/11/15 04:01:25;;;;;;;9.10;2.00;;;;;;;9.64;90.16;99163.26;111123;1208;97549;-71
2023/11/15 04:03:52;;;;;;;7.60;2.50;;;;;;;9.63;90.23;99163.83;111019;1212;138461;-70
2023/11/15 04:06:19;;;;;;;7.60;2.00;;;;;;;9.64;90.35;99164.27;111151;1211;99043;-70
2023/11/15 04:08:44;;;;;;;9.70;2.60;;;;;;;9.60;90.26;99163.84;110679;1212;139978;-70
2023/11/15 04:11:09;;;;;;;7.00;2.10;;;;;;;9.59;90.45;99165.50;111210;1211;97684;-70
2023/11/15 04:13:35;;;;;;;8.70;2.00;;;;;;;9.61;90.53;99165.02;110999;1209;98174;-70
2023/11/15 04:16:03;;;;;;;7.70;2.40;;;;;;;9.60;90.52;99171.36;111002;1211;140184;-70
2023/11/15 04:18:30;;;;;;;6.60;1.80;;;;;;;9.59;90.51;99174.59;111180;1209;98250;-70
2023/11/15 04:20:56;;;;;;;6.90;2.30;;;;;;;9.58;90.54;99172.19;111015;1208;138618;-70
2023/11/15 04:23:23;;;;;;;5.30;2.00;;;;;;;9.59;90.72;99176.20;111127;1208;96506;-70
2023/11/15 04:25:51;;;;;;;8.50;2.00;;;;;;;9.62;90.89;99177.28;111150;1211;97694;-70
2023/11/15 04:28:17;;;;;;;6.00;1.90;;;;;;;9.63;90.88;99179.71;111189;1209;138098;-70
2023/11/15 04:30:43;;;;;;;6.20;1.90;;;;;;;9.63;90.90;99179.02;111253;1211;97597;-70
2023/11/15 04:33:09;;;;;;;6.10;1.60;;;;;;;9.64;90.94;99183.94;111141;1211;138463;-70
2023/11/15 04:35:35;;;;;;;9.50;2.40;;;;;;;9.65;90.98;99180.31;111180;1212;97693;-70
2023/11/15 04:38:03;;;;;;;8.30;2.40;;;;;;;9.65;91.10;99183.33;111236;1209;97590;-70
2023/11/15 04:40:29;;;;;;;8.50;2.30;;;;;;;9.66;91.18;99187.87;111051;1211;138916;-70
2023/11/15 04:42:55;;;;;;;11.00;2.60;;;;;;;9.66;91.07;99190.72;111364;1206;97543;-70
2023/11/15 04:45:20;;;;;;;5.40;2.10;;;;;;;9.67;91.25;99191.06;111094;1209;138425;-70
2023/11/15 04:47:46;;;;;;;10.60;2.10;;;;;;;9.67;91.17;99194.81;111212;1211;97732;-70
2023/11/15 04:50:11;;;;;;;11.20;2.70;;;;;;;9.66;91.31;99200.38;111281;1212;97662;-70
2023/11/15 04:52:36;;;;;;;11.00;2.50;;;;;;;9.69;91.40;99206.98;111089;1209;138828;-70
2023/11/15 04:55:02;;;;;;;6.50;2.60;;;;;;;9.68;91.34;99211.48;111364;1211;98024;-70
2023/11/15 04:57:29;;;;;;;6.00;1.80;;;;;;;9.65;91.31;99207.38;111091;1211;138500;-70
2023/11/15 04:59:55;;;;;;;6.50;2.10;;;;;;;9.63;91.57;99207.88;111260;1211;97638;-70
2023/11/15 05:02:22;;;;;;;7.20;1.90;;;;;;;9.64;91.61;99213.54;111140;1211;97735;-70
2023/11/15 05:04:48;;;;;;;7.60;2.10;;;;;;;9.64;91.52;99214.09;111093;1211;138856;-70
2023/11/15 05:07:14;;;;;;;9.50;2.30;;;;;;;9.64;91.68;99216.74;111173;1209;97723;-70
2023/11/15 05:09:39;;;;;;;5.40;1.90;;;;;;;9.65;91.70;99217.73;111054;1211;138724;-70
2023/11/15 05:12:05;;;;;;;11.50;2.60;;;;;;;9.66;91.79;99222.11;111193;1206;97673;-70
2023/11/15 05:14:31;;;;;;;6.00;2.40;;;;;;;9.66;91.85;99223.20;111239;1212;97709;-70
2023/11/15 05:16:56;;;;;;;8.60;2.10;;;;;;;9.64;91.72;99226.73;111070;1206;138003;-70
2023/11/15 05:19:22;;;;;;;4.50;2.00;;;;;;;9.62;91.85;99233.27;111305;1211;97676;-70
2023/11/15 05:21:47;;;;;;;7.20;2.10;;;;;;;9.60;91.91;99233.59;111149;1211;138135;-70
2023/11/15 05:24:14;;;;;;;5.50;1.80;;;;;;;9.61;92.01;99234.91;111194;1212;98147;-70
2023/11/15 05:26:39;;;;;;;6.90;2.40;;;;;;;9.61;92.01;99235.46;111140;1209;97821;-69
2023/11/15 05:29:04;;;;;;;9.70;2.00;;;;;;;9.61;92.13;99238.13;111178;1210;138495;-70
2023/11/15 05:31:29;;;;;;;9.70;2.10;;;;;;;9.62;92.10;99248.27;111217;1211;97630;-70
2023/11/15 05:33:55;;;;;;;6.60;2.10;;;;;;;9.62;92.17;99243.95;111089;1206;138438;-70
2023/11/15 05:36:22;;;;;;;3.30;1.70;;;;;;;9.63;92.19;99246.61;111143;1211;97697;-72
2023/11/15 05:38:47;;;;;;;4.40;1.70;;;;;;;9.62;92.27;99249.48;111127;1206;138360;-70
2023/11/15 05:41:13;;;;;;;8.10;2.20;;;;;;;9.64;92.23;99254.02;111252;1212;98016;-70
2023/11/15 05:43:38;;;;;;;7.70;2.20;;;;;;;9.63;92.25;99262.11;111219;1207;97715;-70
2023/11/15 05:46:04;;;;;;;9.50;1.80;;;;;;;9.60;92.24;99267.29;111032;1209;137967;-70
2023/11/15 05:48:30;;;;;;;9.10;2.10;;;;;;;9.59;92.42;99271.45;111348;1206;97620;-70
2023/11/15 05:50:55;;;;;;;5.00;1.80;;;;;;;9.59;92.36;99278.23;110924;1211;138137;-70
2023/11/15 05:53:21;;;;;;;5.50;2.40;;;;;;;9.59;92.31;99277.67;111126;1206;97710;-70
2023/11/15 05:55:46;;;;;;;5.10;2.20;;;;;;;9.60;92.49;99285.48;111257;1209;98147;-70
2023/11/15 05:58:12;;;;;;;11.80;2.30;;;;;;;9.60;92.48;99289.56;111029;1211;138920;-70
2023/11/15 06:00:37;;;;;;;8.10;2.40;;;;;;;9.60;92.51;99297.78;111094;1209;96446;-70
2023/11/15 06:03:04;;;;;;;5.80;1.90;;;;;;;9.59;92.34;99303.02;111140;1210;138729;-69
2023/11/15 06:05:31;;;;;;;8.80;2.60;;;;;;;9.58;92.47;99305.57;111186;1212;99094;-70
2023/11/15 06:07:56;;;;;;;7.00;1.80;;;;;;;9.59;92.57;99305.90;111133;1206;95075;-71
2023/11/15 06:10:22;;;;;;;7.50;2.40;;;;;;;9.60;92.58;99312.60;111174;1211;138274;-71
2023/11/15 06:12:48;;;;;;;9.50;2.70;;;;;;;9.59;92.52;99315.52;111177;1206;97342;-72
2023/11/15 06:15:14;;;;;;;9.60;2.60;;;;;;;9.58;92.55;99321.09;111122;1211;139073;-71
2023/11/15 06:17:42;;;;;;;10.80;2.30;;;;;;;9.57;92.63;99322.58;111186;1211;97552;-71
2023/11/15 06:20:11;;;;;;;8.00;2.30;;;;;;;9.56;92.56;99324.44;111236;1220;97675;-71
2023/11/15 06:22:57;;;;;;;9.70;2.40;;;;;;;9.54;92.59;99324.54;110968;1211;138682;-70
2023/11/15 06:25:22;;;;;;;5.30;2.20;;;;;;;9.54;92.70;99323.98;111030;1206;110932;-71
2023/11/15 06:27:48;;;;;;;3.60;2.10;;;;;;;9.56;92.71;99327.42;110906;1211;138753;-71
2023/11/15 06:30:16;;;;;;;11.10;2.60;;;;;;;9.58;92.62;99329.66;111095;1206;97599;-70
2023/11/15 06:32:43;;;;;;;7.60;2.50;;;;;;;9.56;92.61;99341.16;111220;1211;97970;-70
2023/11/15 06:35:18;;;;;;;6.70;2.30;;;;;;;9.53;92.64;99345.66;111239;1211;111360;-70
2023/11/15 06:37:45;;;;;;;6.70;2.40;;;;;;;9.51;92.63;99362.19;111055;1211;99559;-70
2023/11/15 06:40:13;;;;;;;14.70;2.60;;;;;;;9.51;92.77;99375.91;111088;1209;138088;-69
2023/11/15 06:42:39;;;;;;;4.30;1.90;;;;;;;9.48;92.68;99378.02;111047;1208;97567;-70
2023/11/15 06:45:05;;;;;;;7.30;1.70;;;;;;;9.46;92.74;99380.33;110907;1212;138261;-70
2023/11/15 06:47:31;;;;;;;5.40;1.50;;;;;;;9.45;92.75;99383.23;111107;1210;99096;-70
2023/11/15 06:49:57;;;;;;;5.30;1.30;;;;;;;9.39;92.57;99384.08;111174;1209;110771;-70
2023/11/15 06:52:25;;;;;;;3.90;1.60;;;;;;;9.36;92.60;99379.80;110940;1212;138759;-72
2023/11/15 06:54:52;;;;;;;3.20;1.60;;;;;;;9.34;92.74;99377.25;111106;1209;97160;-71
2023/11/15 06:57:19;;;;;;;11.30;2.50;;;;;;;9.33;92.75;99382.66;111094;1212;139329;-72
2023/11/15 06:59:44;;;;;;;4.00;1.30;;;;;;;9.32;92.68;99392.89;111143;1211;96021;-72
2023/11/15 07:02:11;;;;;;;6.80;1.50;;;;;;;9.30;92.68;99398.00;111297;1211;97620;-72
2023/11/15 07:04:37;;;;;;;9.30;1.70;;;;;;;9.29;92.67;99397.86;111049;1212;138677;-72
2023/11/15 07:07:02;;;;;;;6.90;1.70;;;;;;;9.28;92.65;99397.06;111258;1212;97629;-72
2023/11/15 07:09:28;;;;;;;5.20;1.70;;;;;;;9.28;92.67;99403.11;111191;1209;138865;-72
2023/11/15 07:11:53;;;;;;;4.70;1.40;;;;;;;9.28;92.63;99402.02;111068;1212;97716;-72
2023/11/15 07:14:20;;;;;;;6.80;1.60;;;;;;;9.27;92.61;99403.84;111198;1208;96618;-73
2023/11/15 07:16:55;;;;;;;5.40;1.90;;;;;;;9.29;92.69;99403.75;111019;1207;138452;-72
2023/11/15 07:19:27;;;;;;;9.00;2.20;;;;;;;9.31;92.72;99406.31;111280;1211;109470;-72
2023/11/15 07:21:53;;;;;;;4.70;1.70;;;;;;;9.32;92.75;99409.30;110973;1212;138669;-71
2023/11/15 07:24:19;;;;;;;3.90;1.80;;;;;;;9.33;92.71;99417.94;110844;1208;97659;-72
2023/11/15 07:26:45;;;;;;;4.70;1.70;;;;;;;9.35;92.60;99416.23;111218;1209;97584;-72
2023/11/15 07:29:13;;;;;;;3.90;1.90;;;;;;;9.36;92.76;99423.27;110948;1212;138391;-72
2023/11/15 07:31:40;;;;;;;3.20;1.70;;;;;;;9.37;92.63;99423.39;111291;1212;97591;-71
2023/11/15 07:34:08;;;;;;;10.00;1.80;;;;;;;9.35;92.51;99431.75;111053;1209;139249;-70
2023/11/15 07:36:34;;;;;;;6.90;2.30;;;;;;;9.33;92.51;99436.48;111011;1212;112111;-71
2023/11/15 07:39:06;;;;;;;3.50;1.20;;;;;;;9.31;92.49;99435.70;111011;1206;139426;-71
2023/11/15 07:41:31;;;;;;;5.60;1.80;;;;;;;9.32;92.52;99439.95;111105;1206;107536;-72
2023/11/15 07:43:58;;;;;;;5.00;1.50;;;;;;;9.31;92.45;99445.67;111099;1212;97671;-72
2023/11/15 07:46:24;;;;;;;4.30;1.50;;;;;;;9.33;92.44;99449.72;111218;1206;139658;-71
2023/11/15 07:48:50;;;;;;;4.70;1.60;;;;;;;9.32;92.40;99455.96;111140;1210;99149;-70
2023/11/15 07:51:17;;;;;;;3.30;1.10;;;;;;;9.32;92.48;99455.06;110966;1211;139160;-69
2023/11/15 07:53:42;;;;;;;5.90;1.90;;;;;;;9.34;92.32;99457.50;111084;1206;97658;-69
2023/11/15 07:56:08;;;;;;;2.90;1.50;;;;;;;9.30;92.30;99467.13;111252;1206;97894;-70
2023/11/15 07:58:34;;;;;;;3.40;1.40;;;;;;;9.27;92.24;99466.40;110964;1206;138555;-70
2023/11/15 08:01:01;;;;;;;4.30;1.30;;;;;;;9.26;92.24;99467.92;113272;1206;95656;-71
2023/11/15 08:03:28;;;;;;;7.20;1.20;;;;;;;9.25;92.21;99465.84;113156;1206;138083;-71
2023/11/15 08:05:58;;;;;;;5.10;1.50;;;;;;;9.23;91.95;99475.02;113227;1206;95570;-70
2023/11/15 08:08:23;;;;;;;3.90;1.60;;;;;;;9.21;91.97;99478.70;112933;1206;96107;-70
2023/11/15 08:10:50;;;;;;;7.30;1.80;;;;;;;9.23;92.08;99486.46;111566;1205;139206;-70
2023/11/15 08:13:22;;;;;;;5.10;2.10;;;;;;;9.24;92.10;99491.02;111326;1210;97672;-70
2023/11/15 08:15:47;;;;;;;6.80;1.80;;;;;;;9.27;92.16;99495.81;110940;1207;138093;-71
2023/11/15 08:18:13;;;;;;;8.00;1.70;;;;;;;9.29;92.09;99501.27;111096;1212;98030;-71
2023/11/15 08:20:41;;;;;;;5.30;1.30;;;;;;;9.29;91.97;99509.81;111219;1206;95862;-71
2023/11/15 08:23:11;;;;;;;2.80;1.70;;;;;;;9.27;91.97;99507.98;110822;1206;138021;-70
2023/11/15 08:25:37;;;;;;;5.30;2.40;;;;;;;9.29;92.09;99514.48;110623;1212;99155;-70
2023/11/15 08:28:03;;;;;;;2.80;1.60;;;;;;;9.30;92.05;99521.54;110649;1206;138322;-71
2023/11/15 08:30:29;;;;;;;6.50;2.10;;;;;;;9.29;91.92;99520.67;110856;1206;97890;-71
2023/11/15 08:32:55;;;;;;;3.30;1.90;;;;;;;9.27;91.88;99527.03;110797;1206;138282;-71
2023/11/15 08:35:21;;;;;;;5.50;1.70;;;;;;;9.26;91.88;99530.48;110903;1210;98245;-72
2023/11/15 08:37:46;;;;;;;6.50;1.50;;;;;;;9.23;91.83;99532.80;111004;1212;97679;-71
2023/11/15 08:40:14;;;;;;;4.20;1.90;;;;;;;9.25;91.86;99538.94;110822;1211;139083;-70
2023/11/15 08:42:39;;;;;;;10.60;1.80;;;;;;;9.27;91.92;99542.73;110906;1212;97937;-70
2023/11/15 08:45:11;;;;;;;9.40;2.00;;;;;;;9.28;91.83;99547.30;113151;1206;139656;-71
2023/11/15 08:47:37;;;;;;;5.00;1.60;;;;;;;9.30;91.87;99550.38;113232;1206;95893;-72
2023/11/15 08:50:08;;;;;;;6.60;2.90;;;;;;;9.32;91.99;99555.63;112793;1209;96440;-72
2023/11/15 08:52:34;;;;;;;7.50;1.60;;;;;;;9.33;91.79;99564.30;111841;1206;138942;-72
2023/11/15 08:54:59;;;;;;;5.80;2.10;;;;;;;9.33;91.68;99569.86;110966;1206;97751;-71
2023/11/15 08:57:24;;;;;;;4.10;2.00;;;;;;;9.31;91.77;99570.64;110801;1211;138661;-71
2023/11/15 08:59:51;;;;;;;6.10;2.20;;;;;;;9.30;91.64;99578.40;110784;1206;97745;-71
2023/11/15 09:02:16;;;;;;;2.70;1.40;;;;;;;9.29;91.66;99585.23;110713;1206;97598;-71
2023/11/15 09:04:43;;;;;;;7.40;1.80;;;;;;;9.26;91.57;99586.08;110315;1206;148443;-72
2023/11/15 09:07:10;;;;;;;2.60;1.40;;;;;;;9.25;91.53;99597.74;111343;1212;97717;-70
2023/11/15 09:09:40;;;;;;;2.90;1.00;;;;;;;9.24;91.53;99603.52;110584;1206;138319;-69
2023/11/15 09:12:08;;;;;;;3.70;1.40;;;;;;;9.21;91.50;99608.51;110723;1209;98926;-69
2023/11/15 09:14:35;;;;;;;2.30;1.20;;;;;;;9.19;91.45;99609.28;110216;1206;107652;-71
2023/11/15 09:17:05;;;;;;;3.70;1.40;;;;;;;9.19;91.47;99613.20;110882;1206;138015;-69
2023/11/15 09:19:34;;;;;;;3.00;1.30;;;;;;;9.16;91.29;99613.74;111981;1210;96211;-69
2023/11/15 09:22:03;;;;;;;4.10;1.00;;;;;;;9.15;91.30;99619.84;110716;1206;140239;-70
2023/11/15 09:24:30;;;;;;;5.30;1.00;;;;;;;9.16;91.34;99623.17;113140;1206;99571;-70
2023/11/15 09:27:00;;;;;;;2.90;1.00;;;;;;;9.17;91.26;99632.77;112926;1206;140550;-70
2023/11/15 09:29:28;;;;;;;1.40;1.10;;;;;;;9.16;91.23;99635.50;113148;1206;95663;-71
2023/11/15 09:31:55;;;;;;;3.30;1.10;;;;;;;9.16;91.17;99642.98;112950;1206;95809;-69
2023/11/15 09:34:21;;;;;;;1.20;0.90;;;;;;;9.12;91.17;99645.16;112075;1212;138022;-69
2023/11/15 09:36:47;;;;;;;2.70;0.90;;;;;;;9.10;91.00;99649.55;111181;1206;98852;-69
2023/11/15 09:39:16;;;;;;;1.70;0.70;;;;;;;9.10;91.14;99655.95;110976;1207;138140;-69
2023/11/15 09:41:49;;;;;;;2.90;1.00;;;;;;;9.12;91.14;99658.52;110906;1206;97672;-69
2023/11/15 09:44:18;;;;;;;1.10;0.70;;;;;;;9.14;91.23;99664.66;111250;1206;111877;-69
2023/11/15 09:46:46;;;;;;;5.70;1.10;;;;;;;9.13;90.99;99673.40;110808;1206;139557;-69
2023/11/15 09:49:15;;;;;;;2.70;1.30;;;;;;;9.11;91.04;99667.12;110494;1206;110819;-70
2023/11/15 09:51:41;;;;;;;2.70;1.10;;;;;;;9.13;90.98;99675.77;110576;1209;138333;-69
2023/11/15 09:54:07;;;;;;;2.40;1.00;;;;;;;9.11;90.96;99674.23;110584;1212;97591;-69
2023/11/15 09:56:34;;;;;;;1.60;1.10;;;;;;;9.08;90.86;99676.34;110922;1212;97674;-69
2023/11/15 09:58:59;;;;;;;2.00;0.90;;;;;;;9.05;90.80;99683.83;110752;1212;138321;-69
2023/11/15 10:01:26;;;;;;;1.80;0.80;;;;;;;9.06;90.87;99681.27;110776;1212;97732;-69
2023/11/15 10:03:52;;;;;;;1.80;0.50;;;;;;;9.08;90.79;99686.34;110680;1206;138663;-69
2023/11/15 10:06:18;;;;;;;1.80;1.00;;;;;;;9.07;90.68;99687.66;113153;1206;96320;-69
2023/11/15 10:08:55;;;;;;;2.80;0.90;;;;;;;9.05;90.67;99690.95;113046;1210;97046;-69
2023/11/15 10:11:24;;;;;;;3.30;1.00;;;;;;;9.05;90.66;99689.88;113085;1206;96159;-70
2023/11/15 10:14:07;;;;;;;1.80;1.00;;;;;;;9.08;90.70;99692.05;113035;1206;97124;-71
2023/11/15 10:16:34;;;;;;;2.10;1.30;;;;;;;9.08;90.58;99688.83;110839;1212;139014;-68
2023/11/15 10:19:00;;;;;;;1.20;1.00;;;;;;;9.08;90.61;99693.44;111237;1206;97703;-70
2023/11/15 10:21:26;;;;;;;1.30;1.20;;;;;;;9.08;90.61;99697.02;110998;1206;139511;-70
2023/11/15 10:24:10;;;;;;;2.50;1.30;;;;;;;9.11;90.75;99698.82;111193;1206;97675;-70
2023/11/15 10:26:38;;;;;;;3.70;1.60;;;;;;;9.14;90.66;99705.13;110959;1210;99015;-71
2023/11/15 10:29:12;;;;;;;2.50;1.60;;;;;;;9.14;90.65;99711.88;111004;1206;140505;-70
2023/11/15 10:31:53;;;;;;;4.00;2.00;;;;;;;9.10;90.61;99717.23;111134;1209;100391;-71
2023/11/15 10:34:28;;;;;;;2.70;1.50;;;;;;;9.06;90.59;99718.70;111057;1206;138282;-69
2023/11/15 10:37:03;;;;;;;3.40;1.80;;;;;;;9.06;90.76;99728.52;110970;1206;97578;-70
2023/11/15 10:39:28;;;;;;;2.40;1.70;;;;;;;9.05;90.73;99732.82;111086;1206;138763;-70
2023/11/15 10:41:55;;;;;;;2.20;1.70;;;;;;;9.03;90.73;99734.54;111251;1206;96204;-69
2023/11/15 10:44:21;;;;;;;2.60;1.80;;;;;;;9.02;90.77;99736.39;111312;1209;97731;-70
2023/11/15 10:46:48;;;;;;;1.90;1.60;;;;;;;9.03;90.90;99736.69;111053;1210;138198;-71
2023/11/15 10:49:18;;;;;;;2.70;2.00;;;;;;;9.04;90.91;99741.80;111275;1206;97665;-72
2023/11/15 10:51:47;;;;;;;5.00;2.30;;;;;;;9.02;90.90;99742.09;110968;1210;140204;-71
2023/11/15 10:54:14;;;;;;;1.90;1.80;;;;;;;9.02;90.98;99748.86;111208;1206;100437;-72
2023/11/15 10:56:43;;;;;;;2.70;2.00;;;;;;;9.03;91.02;99750.59;111048;1209;97779;-72
2023/11/15 10:59:13;;;;;;;4.20;2.00;;;;;;;9.03;91.05;99761.27;111109;1206;138271;-71
2023/11/15 11:01:56;;;;;;;3.40;2.20;;;;;;;8.98;90.93;99769.37;111177;1206;97703;-71
2023/11/15 11:04:23;;;;;;;3.20;2.20;;;;;;;8.93;90.94;99773.38;111014;1210;138167;-70
2023/11/15 11:07:16;;;;;;;3.90;2.70;;;;;;;8.87;90.92;99772.77;110996;1210;97646;-70
2023/11/15 11:10:13;;;;;;;3.10;2.30;;;;;;;8.84;90.94;99785.23;110962;1209;138022;-71
2023/11/15 11:12:40;;;;;;;4.10;2.60;;;;;;;8.78;91.01;99788.90;111041;1206;97973;-70
2023/11/15 11:15:26;;;;;;;1.90;1.80;;;;;;;8.77;91.13;99791.79;110946;1209;138045;-71
2023/11/15 11:18:03;;;;;;;3.30;2.70;;;;;;;8.76;91.10;99796.85;111029;1206;111220;-71
2023/11/15 11:20:31;;;;;;;8.00;3.10;;;;;;;8.75;91.13;99808.81;110726;1210;100273;-72
2023/11/15 11:23:19;;;;;;;4.10;3.00;;;;;;;8.76;91.15;99809.66;110900;1209;139080;-69
2023/11/15 11:25:46;;;;;;;5.10;3.20;;;;;;;8.78;91.37;99810.78;110617;1206;97700;-69
2023/11/15 11:28:13;;;;;;;6.40;3.20;;;;;;;8.80;91.36;99812.67;110446;1210;138723;-70